Impacts TAF Board INFO
FOR SITUATIONAL AWARENESS. NOT TO BE USED FOR FLIGHT PLANNING PURPOSES.
IDs:

KATL - Atlanta/Hartsfield-J, GA, US

Issued at 2201 UTC 13 Dec 2017
Updated at 2229 UTC 13 Dec 2017
Potential Impact None Slight Moderate High
Time2152Z 13/23Z 14/00Z 14/01Z 14/02Z 14/03Z 14/04Z 14/05Z 14/06Z 14/07Z 14/08Z 14/09Z 14/10Z 14/11Z>>
Type OBS PRVL PRVL PRVL PRVL PRVL PRVL PRVL PRVL PRVL PRVL PRVL PRVL PRVL
VIS 10 >6 >6 >6 >6 >6 >6 >6 >6 >6 >6 >6 >6 >6
CIG -- -- -- -- -- -- -- -- -- -- -- -- -- --
Cover FEW SKC SKC SKC SKC SKC SKC SKC SKC SKC SKC SKC SKC SKC
FltCat VFR VFR VFR VFR VFR VFR VFR VFR VFR VFR VFR VFR VFR VFR
WX -- -- -- -- -- -- -- -- -- -- -- -- -- --
WDir 220 230 250 250 250 250 250 250 250 250 250 250 250 250
WSpd 8 8 10 10 10 10 10 10 10 10 10 10 10 10
WGst 20 18 -- -- -- -- -- -- -- -- -- -- -- --

Raw TAF
KATL 132201Z 1322/1424 23008G18KT P6SM SKC
  FM140000 25010KT P6SM SKC
  FM141600 27006KT P6SM FEW035


Raw METAR
KATL 132152Z 22008G20KT 10SM FEW250 09/M11 A2990 RMK AO2 SLP130 T00891106
KATL 132052Z 23012G18KT 10SM CLR 09/M12 A2992 RMK AO2 SLP138 T00941122 56027
KATL 131952Z 22010KT 10SM CLR 09/M11 A2993 RMK AO2 SLP141 T00891106

METAR Board
Radar Display
Forecast Discussion

FOR SITUATIONAL AWARENESS. NOT TO BE USED FOR FLIGHT PLANNING PURPOSES.